^^
Station Historical Data
Daily Summary for July 14, 2017 Units:  Metric    English   Both
« Previous Day
Next Day »
Daily Weekly Monthly Yearly Custom
  High: Low: Average:
Temperature: 26.1 °C 8.9 °C 14.4 °C
Dew Point: 5.1 °C -2.4 °C -0.6 °C
Humidity: 73% 16% 39%
Wind Speed: 24.1km/h 0km/h 2.9km/h
Wind Gust: 27.4km/h - -
Wind- - WSW
Pressure: 1016.1 hPa 1010 hPa -
Precipitation: 0 mm    
Historical Graphs
 
 
Tabular Data for July 14, 2017
Time Temperature Dew Point Pressure Wind Wind Speed Wind Gust Humidity Rainfall Rate (Hourly) solar Conditions
01:15 11.2 °C -2.3 °C 1016.1 hPa Calm     39% 0 mm 0.0 W/m2
01:20 11.1 °C -2 °C 1016.1 hPa Calm     40% 0 mm 0.0 W/m2
01:25 10.8 °C -2.3 °C 1016.1 hPa Calm     40% 0 mm 0.0 W/m2
01:31 10.7 °C -2.4 °C 1015.8 hPa Calm     40% 0 mm 0.0 W/m2
01:36 10.7 °C -2.4 °C 1015.8 hPa Calm     40% 0 mm 0.0 W/m2
01:41 10.7 °C -2 °C 1015.8 hPa Calm     41% 0 mm 0.0 W/m2
01:51 10.9 °C -1.8 °C 1015.5 hPa Calm     41% 0 mm 0.0 W/m2
01:56 11.2 °C -1.6 °C 1015.5 hPa Calm     41% 0 mm 0.0 W/m2
02:01 11.4 °C -1.7 °C 1015.5 hPa Calm     40% 0 mm 0.0 W/m2
02:07 11.6 °C -1.5 °C 1015.8 hPa Calm     40% 0 mm 0.0 W/m2
02:12 11.8 °C -1.4 °C 1015.8 hPa Calm     40% 0 mm 0.0 W/m2
02:17 11.9 °C -1.3 °C 1015.5 hPa Calm     40% 0 mm 0.0 W/m2
02:22 11.8 °C -1.7 °C 1015.5 hPa Calm     39% 0 mm 0.0 W/m2
02:27 11.8 °C -1.4 °C 1015.5 hPa Calm     40% 0 mm 0.0 W/m2
02:38 11.7 °C -1.1 °C 1015.1 hPa Calm     41% 0 mm 0.0 W/m2
02:43 11.7 °C -1.1 °C 1015.5 hPa Calm     41% 0 mm 0.0 W/m2
02:48 11.7 °C -0.8 °C 1015.1 hPa Calm     42% 0 mm 0.0 W/m2
02:53 11.8 °C -0.7 °C 1015.1 hPa Calm     42% 0 mm 0.0 W/m2
02:58 12 °C -0.5 °C 1015.1 hPa Calm     42% 0 mm 0.0 W/m2
03:03 12.1 °C -0.8 °C 1015.1 hPa Calm     41% 0 mm 0.0 W/m2
03:09 12 °C -0.9 °C 1015.1 hPa Calm     41% 0 mm 0.0 W/m2
03:14 12.1 °C -0.8 °C 1015.1 hPa Calm     41% 0 mm 0.0 W/m2
03:24 12 °C -0.9 °C 1015.1 hPa Calm     41% 0 mm 0.0 W/m2
03:29 12.1 °C -0.8 °C 1015.1 hPa Calm     41% 0 mm 0.0 W/m2
03:39 12.2 °C -0.7 °C 1014.8 hPa Calm     41% 0 mm 0.0 W/m2
03:49 12.2 °C -1 °C 1014.8 hPa Calm     40% 0 mm 0.0 W/m2
04:00 11.8 °C -1 °C 1014.8 hPa Calm     41% 0 mm 0.0 W/m2
04:05 11.7 °C -1.1 °C 1014.8 hPa Calm     41% 0 mm 0.0 W/m2
04:10 11.6 °C -1.2 °C 1014.8 hPa Calm     41% 0 mm 0.0 W/m2
04:21 11.2 °C -1.6 °C 1014.8 hPa Calm     41% 0 mm 0.0 W/m2
04:26 11.1 °C -1.7 °C 1014.8 hPa Calm     41% 0 mm 0.0 W/m2
04:31 11.1 °C -1.3 °C 1014.8 hPa Calm     42% 0 mm 0.0 W/m2
04:36 11 °C -1.4 °C 1014.8 hPa Calm     42% 0 mm 0.0 W/m2
04:41 11 °C -1.4 °C 1014.4 hPa Calm     42% 0 mm 0.0 W/m2
04:46 11.1 °C -1.3 °C 1014.4 hPa Calm     42% 0 mm 0.0 W/m2
04:51 11.1 °C -1.3 °C 1014.4 hPa Calm     42% 0 mm 0.0 W/m2
04:56 11.1 °C -1.3 °C 1014.4 hPa Calm     42% 0 mm 0.0 W/m2
05:02 11 °C -1.8 °C 1014.4 hPa Calm     41% 0 mm 0.0 W/m2
05:07 10.8 °C -1.6 °C 1014.4 hPa Calm     42% 0 mm 0.0 W/m2
05:12 10.6 °C -1.8 °C 1014.4 hPa Calm     42% 0 mm 0.0 W/m2
05:17 10.4 °C -2 °C 1014.4 hPa Calm     42% 0 mm 0.0 W/m2
05:22 10.2 °C -2.1 °C 1014.4 hPa Calm     42% 0 mm 0.0 W/m2
05:28 10.2 °C -1.8 °C 1014.4 hPa Calm     43% 0 mm 0.0 W/m2
05:33 10.3 °C -1.7 °C 1014.4 hPa Calm     43% 0 mm 0.0 W/m2
05:39 10.3 °C -1.7 °C 1014.4 hPa Calm     43% 0 mm 0.0 W/m2
05:48 10 °C -2 °C 1014.4 hPa Calm     43% 0 mm 0.0 W/m2
05:54 9.9 °C -2.1 °C 1014.4 hPa Calm     43% 0 mm 0.0 W/m2
06:04 9.9 °C -1.8 °C 1014.4 hPa Calm     44% 0 mm 0.0 W/m2
06:09 9.8 °C -1.9 °C 1014.4 hPa Calm     44% 0 mm 0.0 W/m2
06:15 9.8 °C -1.9 °C 1014.4 hPa Calm     44% 0 mm 0.0 W/m2
06:21 9.7 °C -1.7 °C 1014.4 hPa Calm     45% 0 mm 0.0 W/m2
06:41 9.6 °C -1.8 °C 1014.4 hPa Calm     45% 0 mm 0.0 W/m2
06:50 9.6 °C -1.8 °C 1014.4 hPa Calm     45% 0 mm 11.0 W/m2
07:02 9.7 °C -1.7 °C 1014.8 hPa Calm     45% 0 mm 16.0 W/m2
07:11 10.7 °C -1.4 °C 1014.8 hPa Calm     43% 0 mm 35.0 W/m2
07:16 11.1 °C -1.7 °C 1014.8 hPa Calm     41% 0 mm 35.0 W/m2
07:21 11.4 °C -1.4 °C 1014.8 hPa Calm     41% 0 mm 40.0 W/m2
07:31 12 °C -1.5 °C 1014.8 hPa Calm     39% 0 mm 53.0 W/m2
07:51 12.7 °C -1.3 °C 1014.8 hPa Calm     38% 0 mm 142.0 W/m2
07:57 13.7 °C -1.1 °C 1014.8 hPa Calm     36% 0 mm 163.0 W/m2
08:18 14.6 °C -1.1 °C 1015.1 hPa Calm     34% 0 mm 132.0 W/m2
08:34 14.7 °C -1.4 °C 1015.1 hPa Calm     33% 0 mm 246.0 W/m2
08:45 15.8 °C -0.9 °C 1015.1 hPa Calm     32% 0 mm 295.0 W/m2
09:06 17.1 °C -1.1 °C 1015.1 hPa Calm     29% 0 mm 332.0 W/m2
09:15 18.2 °C -1.1 °C 1015.1 hPa Calm     27% 0 mm 366.0 W/m2
09:36 18.8 °C -1.1 °C 1015.1 hPa West 6.4 km/h 11.3 km/h 26% 0 mm 399.0 W/m2
09:46 19.2 °C -1.3 °C 1015.1 hPa Calm   9.7 km/h 25% 0 mm 427.0 W/m2
10:01 19.4 °C -1.1 °C 1015.1 hPa Calm   8 km/h 25% 0 mm 455.0 W/m2
10:12 19.8 °C -1.4 °C 1014.8 hPa Calm   12.9 km/h 24% 0 mm 476.0 W/m2
10:37 20.4 °C -2 °C 1014.4 hPa West 9.7 km/h 14.5 km/h 22% 0 mm 508.0 W/m2
10:45 20.9 °C -1.6 °C 1014.4 hPa West 7.9 km/h 14.5 km/h 22% 0 mm 524.0 W/m2
10:54 21.3 °C -1.9 °C 1014.1 hPa West 6.4 km/h 19.3 km/h 21% 0 mm 534.0 W/m2
11:06 21.6 °C -1.7 °C 1014.1 hPa WNW 1.4 km/h 17.7 km/h 21% 0 mm 545.0 W/m2
11:12 21.9 °C -1.4 °C 1013.8 hPa Calm   20.9 km/h 21% 0 mm 548.0 W/m2
11:34 22.3 °C -1.8 °C 1013.4 hPa WNW 6.4 km/h 16.1 km/h 20% 0 mm 554.0 W/m2
11:43 22.8 °C -2 °C 1013.1 hPa Calm   11.3 km/h 19% 0 mm 566.0 W/m2
12:04 23.2 °C -1.7 °C 1012.8 hPa Calm   9.7 km/h 19% 0 mm 571.0 W/m2
12:18 23.6 °C -1.4 °C 1012.4 hPa Calm   11.3 km/h 19% 0 mm 571.0 W/m2
12:24 23.8 °C -2 °C 1012.1 hPa Calm   9.7 km/h 18% 0 mm 573.0 W/m2
12:44 24.1 °C -1.7 °C 1011.7 hPa Calm     18% 0 mm 561.0 W/m2
12:59 24.8 °C -1.9 °C 1011.4 hPa Calm   6.4 km/h 17% 0 mm 547.0 W/m2
13:09 25.3 °C -1.5 °C 1011.4 hPa WNW 7.9 km/h 8 km/h 17% 0 mm 538.0 W/m2
13:24 25.2 °C -1.6 °C 1011.1 hPa WNW 6.4 km/h 17.7 km/h 17% 0 mm 517.0 W/m2
13:33 25.3 °C -2.3 °C 1010.7 hPa WNW 7.9 km/h 19.3 km/h 16% 0 mm 499.0 W/m2
13:45 25.3 °C -2.3 °C 1010.7 hPa Calm   6.4 km/h 16% 0 mm 487.0 W/m2
13:55 25.4 °C -2.3 °C 1010.4 hPa Calm   16.1 km/h 16% 0 mm 473.0 W/m2
14:10 25.4 °C -2.3 °C 1010.4 hPa WNW 7.9 km/h 16.1 km/h 16% 0 mm 445.0 W/m2
14:25 25.9 °C -1.8 °C 1010 hPa Calm     16% 0 mm 415.0 W/m2
14:51 26.1 °C -1.7 °C 1010 hPa WSW 19.5 km/h 27.4 km/h 16% 0 mm 359.0 W/m2
15:21 23.9 °C -1.1 °C 1010.7 hPa SW 24.1 km/h 24.1 km/h 19% 0 mm 287.0 W/m2
15:37 23.3 °C -1.6 °C 1010.7 hPa SW 20.9 km/h 24.1 km/h 19% 0 mm 246.0 W/m2
16:22 20.2 °C 1.6 °C 1011.7 hPa SW 14.3 km/h 22.5 km/h 29% 0 mm 100.0 W/m2
16:37 19.2 °C 2.1 °C 1012.1 hPa SW 17.7 km/h 22.5 km/h 32% 0 mm 58.0 W/m2
16:53 18.2 °C 3.3 °C 1012.1 hPa SW 14.3 km/h 17.7 km/h 37% 0 mm 25.0 W/m2
17:34 16.1 °C 3.8 °C 1013.1 hPa SW 11.1 km/h 14.5 km/h 44% 0 mm 0.0 W/m2
17:48 15.7 °C 4.1 °C 1013.4 hPa SW 13 km/h 14.5 km/h 46% 0 mm 0.0 W/m2
18:38 13.7 °C 4.8 °C 1014.1 hPa SW 19.5 km/h 22.5 km/h 55% 0 mm 0.0 W/m2
18:52 13.2 °C 4.9 °C 1014.4 hPa SW 11.1 km/h 20.9 km/h 57% 0 mm 0.0 W/m2
19:15 11.9 °C 4.8 °C 1014.8 hPa SW 16.3 km/h 24.1 km/h 62% 0 mm 0.0 W/m2
19:23 11.7 °C 5.1 °C 1014.8 hPa SW 19.5 km/h 27.4 km/h 64% 0 mm 0.0 W/m2
19:57 10.8 °C 4.9 °C 1015.5 hPa SW 19.5 km/h 20.9 km/h 67% 0 mm 0.0 W/m2
20:20 10.4 °C 5 °C 1015.8 hPa SW 11.1 km/h 16.1 km/h 69% 0 mm 0.0 W/m2
20:34 10.2 °C 5 °C 1015.8 hPa SW 6.4 km/h 8 km/h 70% 0 mm 0.0 W/m2
20:44 10.1 °C 5.1 °C 1015.8 hPa SW 7.9 km/h 9.7 km/h 71% 0 mm 0.0 W/m2
21:05 9.9 °C 4.9 °C 1015.8 hPa SW 7.9 km/h 9.7 km/h 71% 0 mm 0.0 W/m2
21:18 9.6 °C 4.6 °C 1015.8 hPa Calm     71% 0 mm 0.0 W/m2
21:27 9.2 °C 4.4 °C 1016.1 hPa Calm     72% 0 mm 0.0 W/m2
21:32 8.9 °C 4.3 °C 1016.1 hPa Calm     73% 0 mm 0.0 W/m2
21:37 8.9 °C 4.3 °C 1016.1 hPa Calm     73% 0 mm 0.0 W/m2
Canyon Roadhouse, Fishriver Canyon, Namibia
Compliments of Weather Underground - 2.25 mb